Tiempo atmosférico en la estación meteorológica de Retiendas, Guadalajara (910 m.)



Fecha
DESCASC
Temp. máxima en grados centígrados (hora)
DESCASC
Temp. mínima en grados centígrados (hora)
DESCASC
Temp. media en grados centígrados
DESCASC
Racha de viento máxima en m/sg (hora)
DESCASC
Velocidad máxima media en intervalos de 10 minutos(hora)
DESCASC
Precipitaciones diarias en mm
DESCASC
Precipitaciones de 00:00 a 06:00 en mm
DESCASC
Precipitaciones de 06:00 a 12:00 en mm
DESCASC
Precipitaciones de 12:00 a 18:00 en mm
DESCASC
Precipitaciones de 18:00 a 24:00 en mm
DESCASC

Gráficas

Temp. máximas Temp. mínimas Temp. medias Precipitaciones Rachas de viento máximas Velocidades máximas media en intervalos de 10 minutos

Datos horarios

Fecha y hora oficial Temperatura (ºC) Velocidad del viento (km/h) Dirección del viento Racha (km/h) Dirección de racha Precipitación (mm) Presión (hPa) Tendencia (hPa) Humedad (%)
2020-02-16 23:00:00 6 2 Nordeste 6 Nordeste 0 -- -- 95
2020-02-16 22:00:00 6.8 4 Nordeste 9 Nordeste 0 -- -- 94
2020-02-16 21:00:00 7.7 0 Calma 6 Nordeste 0 -- -- 93
2020-02-16 20:00:00 8.6 0 Calma 5 Nordeste 0 -- -- 89
2020-02-16 19:00:00 9.9 0 Calma 10 Sudeste 0 -- -- 87
2020-02-16 18:00:00 12.1 8 Sudeste 21 Sudeste 0 -- -- 77
2020-02-16 17:00:00 13.4 10 Sudeste 22 Sudeste 0 -- -- 72
2020-02-16 16:00:00 12.3 9 Sur 21 Sudeste 0 -- -- 75
2020-02-16 15:00:00 10.3 7 Sudeste 24 Sudeste 0 -- -- 83
2020-02-16 14:00:00 9.4 15 Sudeste 32 Sudeste 0 -- -- 87
2020-02-16 13:00:00 9.4 11 Sur 29 Sudeste 0 -- -- 88
2020-02-16 12:00:00 9.9 13 Sudeste 23 Sudeste 0 -- -- 85
2020-02-16 11:00:00 7.2 3 Noroeste 12 Sudeste 0 -- -- 93
2020-02-16 10:00:00 3.3 0 Calma 10 Nordeste 0 -- -- 96
2020-02-16 09:00:00 2.2 2 Norte 7 Norte 0 -- -- 98
2020-02-16 08:00:00 1.6 0 Calma 5 Nordeste 0 -- -- 98
2020-02-16 07:00:00 2.1 0 Calma 8 Nordeste 0 -- -- 97
2020-02-16 06:00:00 2.4 3 Nordeste 6 Nordeste 0 -- -- 98
2020-02-16 05:00:00 2.6 0 Calma 6 Nordeste 0 -- -- 97
2020-02-16 04:00:00 3 0 Calma 8 Norte 0 -- -- 96
2020-02-16 03:00:00 3.6 3 Norte 9 Nordeste 0 -- -- 96
2020-02-16 02:00:00 3.9 3 Norte 9 Norte 0 -- -- 96
2020-02-16 01:00:00 4.3 0 Calma 5 Nordeste 0 -- -- 95
2020-02-16 00:00:00 5 0 Calma 4 Nordeste 0 -- -- 95
2020-02-15 23:00:00 5.9 3 Nordeste 8 Nordeste 0 -- -- 95
2020-02-15 22:00:00 6.6 0 Calma 5 Nordeste 0 -- -- 93
2020-02-15 21:00:00 8 0 Calma 3 Nordeste 0 -- -- 90
2020-02-15 20:00:00 9.3 0 Calma 13 Sur 0 -- -- 86
2020-02-15 19:00:00 11.4 7 Sur 18 Sudeste 0 -- -- 78
2020-02-15 18:00:00 12.8 10 Sudeste 21 Sur 0 -- -- 74
2020-02-15 17:00:00 14.6 12 Sudeste 22 Sudeste 0 -- -- 64
2020-02-15 16:00:00 14.5 11 Sudeste 27 Sur 0 -- -- 62
2020-02-15 15:00:00 14.3 13 Sur 28 Sudeste 0 -- -- 63
2020-02-15 14:00:00 13.8 12 Sudeste 28 Sudeste 0 -- -- 67
2020-02-15 13:00:00 12.7 12 Sudeste 27 Sudeste 0 -- -- 70
2020-02-15 12:00:00 11.3 5 Sudeste 15 Sudeste 0 -- -- 76
2020-02-15 11:00:00 7 0 Calma 12 Nordeste 0 -- -- 84
2020-02-15 10:00:00 3.2 3 Sudoeste 12 Nordeste 0 -- -- 96
2020-02-15 09:00:00 1.4 0 Calma 4 Este 0 -- -- 98
2020-02-15 08:00:00 1.4 0 Calma 6 Nordeste 0 -- -- 98
2020-02-15 07:00:00 1.8 3 Norte 9 Nordeste 0 -- -- 98
2020-02-15 06:00:00 2.2 3 Norte 6 Nordeste 0 -- -- 98
2020-02-15 05:00:00 2.5 2 Nordeste 6 Nordeste 0 -- -- 98
2020-02-15 04:00:00 2.6 0 Calma 6 Nordeste 0 -- -- 97
2020-02-15 03:00:00 3 0 Calma 3 Norte 0 -- -- 97
2020-02-15 02:00:00 3.6 0 Calma 5 Nordeste 0 -- -- 96
2020-02-15 01:00:00 4.2 0 Calma 6 Nordeste 0 -- -- 96
2020-02-15 00:00:00 4.6 0 Calma 6 Este 0 -- -- 95
2020-02-14 23:00:00 5.2 0 Calma 9 Nordeste 0 -- -- 93
2020-02-14 22:00:00 6.2 5 Nordeste 12 Nordeste 0 -- -- 92
2020-02-14 21:00:00 6.8 3 Norte 10 Nordeste 0 -- -- 91
2020-02-14 20:00:00 7.7 0 Calma 3 Sudoeste 0 -- -- 89
2020-02-14 19:00:00 9.3 0 Calma 5 Sur 0 -- -- 83
2020-02-14 18:00:00 11.4 3 Sudoeste 13 Sudeste 0 -- -- 75
2020-02-14 17:00:00 14.7 6 Sur 17 Sudeste 0 -- -- 61
2020-02-14 16:00:00 14.6 9 Sudeste 19 Sudeste 0 -- -- 58
2020-02-14 15:00:00 14 7 Sur 16 Sudoeste 0 -- -- 61
2020-02-14 14:00:00 12.2 6 Sur 13 Sur 0 -- -- 72
2020-02-14 13:00:00 9.9 8 Sur 18 Sur 0 -- -- 80
2020-02-14 12:00:00 9 9 Sur 17 Sudeste 0 -- -- 84
2020-02-14 11:00:00 7.1 4 Sudeste 7 Sur 0 -- -- 87
2020-02-14 10:00:00 3.3 4 Nordeste 11 Nordeste 0 -- -- 93
2020-02-14 09:00:00 1.6 3 Nordeste 13 Nordeste 0 -- -- 97
2020-02-14 08:00:00 1.7 2 Nordeste 6 Nordeste 0 -- -- 100
2020-02-14 07:00:00 1 0 Calma 2 Nordeste 0 -- -- 98
2020-02-14 06:00:00 1.7 0 Calma 9 Nordeste 0 -- -- 98
2020-02-14 05:00:00 1.9 2 Norte 4 Norte 0 -- -- 99
2020-02-14 04:00:00 2 0 Calma 3 Nordeste 0 -- -- 97
2020-02-14 03:00:00 2.7 2 Norte 5 Norte 0 -- -- 97
2020-02-14 02:00:00 3.4 0 Calma 7 Nordeste 0 -- -- 95
2020-02-14 01:00:00 4 2 Norte 6 Oeste 0 -- -- 95
2020-02-14 00:00:00 4.4 0 Calma 8 Noroeste 0 -- -- 94
2020-02-13 23:00:00 4.8 0 Calma 5 Norte 0 -- -- 95
2020-02-13 22:00:00 5.7 3 Nordeste 9 Nordeste 0 -- -- 94
2020-02-13 21:00:00 6.2 0 Calma 4 Sudeste 0 -- -- 93
2020-02-13 20:00:00 7.4 0 Calma 5 Sudeste 0 -- -- 87
2020-02-13 19:00:00 9.4 0 Calma 13 Nordeste 0 -- -- 76
2020-02-13 18:00:00 12.2 8 Nordeste 22 Nordeste 0 -- -- 60
2020-02-13 17:00:00 12.5 10 Nordeste 20 Nordeste 0 -- -- 60
2020-02-13 16:00:00 12 7 Sudeste 18 Sudoeste 0 -- -- 79
2020-02-13 15:00:00 12.2 6 Sur 19 Sudeste 0 -- -- 82
2020-02-13 14:00:00 11.5 7 Sudeste 21 Sudeste 0 -- -- 81
2020-02-13 13:00:00 10.2 5 Sudeste 19 Sudeste 0 -- -- 89
2020-02-13 12:00:00 9.9 9 Sudeste 21 Sudeste 0 -- -- 93
2020-02-13 11:00:00 9.2 9 Sudeste 17 Sudeste 0 -- -- 99
2020-02-13 10:00:00 8.2 3 Sudeste 12 Sudeste 0 -- -- 100
2020-02-13 09:00:00 7.7 3 Sur 5 Sur 0 -- -- 100
2020-02-13 08:00:00 7.6 0 Calma 2 Sudoeste 0 -- -- 100
2020-02-13 07:00:00 7.6 0 Calma 7 Sudeste 0 -- -- 100
2020-02-13 06:00:00 7.5 6 Sudeste 11 Sudeste 0.2 -- -- 100
2020-02-13 05:00:00 7.7 5 Sur 10 Sudeste 0 -- -- 100
2020-02-13 04:00:00 7.6 4 Sudeste 11 Sudeste 0 -- -- 100
2020-02-13 03:00:00 7.6 6 Sudeste 10 Sudeste 0 -- -- 100
2020-02-13 02:00:00 7.7 6 Sudeste 10 Sudeste 0 -- -- 100
2020-02-13 01:00:00 7.8 4 Sudeste 9 Sudeste 0 -- -- 99
2020-02-13 00:00:00 7.8 4 Sudeste 9 Sudeste 0 -- -- 98
2020-02-12 23:00:00 8.1 6 Sudeste 9 Sudeste 0 -- -- 97
2020-02-12 22:00:00 8.5 4 Sudeste 12 Sudeste 0 -- -- 94
2020-02-12 21:00:00 9.1 6 Sur 13 Sudeste 0 -- -- 94
2020-02-12 20:00:00 9.3 2 Sur 14 Sudeste 0 -- -- 94
2020-02-12 19:00:00 9.7 9 Sudeste 18 Sudeste 0 -- -- 93
2020-02-12 18:00:00 10.9 15 Sudeste 23 Sudeste 0 -- -- 87
2020-02-12 17:00:00 11.9 11 Sudeste 21 Sudeste 0 -- -- 82
2020-02-12 16:00:00 12.8 10 Sudeste 22 Sudeste 0 -- -- 80
2020-02-12 15:00:00 13.9 8 Sudeste 18 Sudeste 0 -- -- 69
2020-02-12 14:00:00 14.5 5 Sur 13 Sudeste 0 -- -- 66
2020-02-12 13:00:00 14.1 5 Sur 12 Sur 0 -- -- 68
2020-02-12 12:00:00 12.5 3 Sur 9 Sudeste 0 -- -- 78
2020-02-12 11:00:00 9 0 Calma 9 Nordeste 0 -- -- 91
2020-02-12 10:00:00 6.9 2 Nordeste 5 Nordeste 0 -- -- 98
2020-02-12 09:00:00 6.1 0 Calma 6 Este 0 -- -- 99
2020-02-12 08:00:00 6.2 4 Nordeste 8 Nordeste 0 -- -- 99
2020-02-12 07:00:00 6.5 0 Calma 4 Sudoeste 0 -- -- 99
2020-02-12 06:00:00 6.8 0 Calma 6 Nordeste 0 -- -- 99
2020-02-12 05:00:00 6.9 3 Nordeste 9 Norte 0 -- -- 99
2020-02-12 04:00:00 7 2 Sur 5 Sur 0 -- -- 98
2020-02-12 03:00:00 7.6 3 Nordeste 7 Nordeste 0 -- -- 98
2020-02-12 02:00:00 7.8 2 Nordeste 6 Nordeste 0 -- -- 99
2020-02-12 01:00:00 8.2 3 Nordeste 4 Nordeste 0 -- -- 99
2020-02-12 00:00:00 8.7 0 Calma 8 Sudeste 0 -- -- 99
2020-02-11 23:00:00 9 8 Nordeste 10 Nordeste 0 -- -- 98
2020-02-11 22:00:00 9.3 2 Nordeste 4 Nordeste 0.2 -- -- 97
2020-02-11 21:00:00 9.7 0 Calma 3 Sudeste 0 -- -- 94
2020-02-11 20:00:00 10.1 3 Sudeste 7 Sur 0 -- -- 92
2020-02-11 19:00:00 10.9 3 Sur 10 Sudeste 0 -- -- 89
2020-02-11 18:00:00 12.2 5 Sudeste 14 Sudeste 0 -- -- 85
2020-02-11 17:00:00 13.5 9 Sudeste 19 Sudeste 0 -- -- 78
2020-02-11 16:00:00 15.1 13 Sudeste 19 Sudeste 0 -- -- 70
2020-02-11 15:00:00 14.4 5 Sudeste 18 Sudeste 0 -- -- 74
2020-02-11 14:00:00 13.4 10 Sudeste 18 Sudeste 0 -- -- 77
2020-02-11 13:00:00 11.6 6 Sudeste 11 Sudeste 0 -- -- 84
2020-02-11 12:00:00 7.9 2 Nordeste 5 Nordeste 0 -- -- 100
2020-02-11 11:00:00 6 0 Calma 3 Oeste 0 -- -- 100
2020-02-11 10:00:00 4.3 0 Calma 3 Nordeste 0 -- -- 100
2020-02-11 09:00:00 3.4 0 Calma 4 Norte 0 -- -- 100
2020-02-11 08:00:00 3.5 0 Calma 4 Norte 0 -- -- 100
2020-02-11 07:00:00 3.3 0 Calma 3 Sudoeste 0 -- -- 99
2020-02-11 06:00:00 4.2 0 Calma 8 Nordeste 0 -- -- 100
2020-02-11 05:00:00 4.4 0 Calma 5 Nordeste 0 -- -- 100
2020-02-11 04:00:00 4.4 2 Nordeste 5 Nordeste 0 -- -- 100
2020-02-11 03:00:00 4.6 0 Calma 6 Norte 0 -- -- 100
2020-02-11 02:00:00 4 0 Calma 2 Nordeste 0 -- -- 100
2020-02-11 01:00:00 4.6 0 Calma 4 Sur 0 -- -- 99
2020-02-11 00:00:00 5.1 0 Calma 5 Sudeste 0 -- -- 100
2020-02-10 23:00:00 4.8 2 Sur 6 Sur 0 -- -- 99
2020-02-10 22:00:00 4.9 0 Calma 4 Sur 0 -- -- 98
2020-02-10 21:00:00 6.3 0 Calma 4 Nordeste 0 -- -- 97
2020-02-10 20:00:00 7 4 Sur 8 Sur 0 -- -- 95
2020-02-10 19:00:00 8.4 0 Calma 4 Sudoeste 0 -- -- 93
2020-02-10 18:00:00 9.8 0 Calma 15 Sudeste 0 -- -- 89
2020-02-10 17:00:00 11 9 Sudeste 19 Sudeste 0 -- -- 85
2020-02-10 16:00:00 10.3 8 Sudeste 17 Sudeste 0 -- -- 88
2020-02-10 15:00:00 9.9 5 Sur 18 Sudeste 0 -- -- 89
2020-02-10 14:00:00 9.7 9 Sur 19 Sur 0 -- -- 89
2020-02-10 13:00:00 9.2 7 Sudeste 17 Sudeste 0 -- -- 92
2020-02-10 12:00:00 7.7 5 Sur 12 Sudeste 0 -- -- 100
2020-02-10 11:00:00 6.8 6 Sudeste 16 Sudeste 0 -- -- 100
2020-02-10 10:00:00 6.6 6 Sur 12 Sudeste 0 -- -- 100
2020-02-10 09:00:00 6.5 7 Sudeste 14 Sudeste 0 -- -- 100
2020-02-10 08:00:00 6.5 4 Sudeste 12 Sudeste 0 -- -- 99
2020-02-10 07:00:00 6.5 3 Sudeste 6 Sudeste 0 -- -- 98
2020-02-10 06:00:00 6.3 0 Calma 2 Oeste 0 -- -- 96
2020-02-10 05:00:00 6.5 0 Calma 4 Este 0 -- -- 95
2020-02-10 04:00:00 6.6 0 Calma 4 Nordeste 0 -- -- 95
2020-02-10 03:00:00 6.5 0 Calma 2 Sur 0 -- -- 95
2020-02-10 02:00:00 6.6 0 Calma 7 Nordeste 0 -- -- 94
2020-02-10 01:00:00 6.3 0 Calma 6 Sudeste 0 -- -- 95
2020-02-10 00:00:00 6.5 0 Calma 4 Sudoeste 0 -- -- 94
2020-02-09 23:00:00 6.6 0 Calma 3 Sur 0 -- -- 94
2020-02-09 22:00:00 6.5 0 Calma 3 Sur 0 -- -- 93
2020-02-09 21:00:00 6.8 0 Calma 3 Norte 0 -- -- 92
2020-02-09 20:00:00 6.8 0 Calma 7 Sudeste 0 -- -- 91
2020-02-09 19:00:00 7.1 4 Sur 14 Sudeste 0 -- -- 87
2020-02-09 18:00:00 7.9 9 Sudeste 20 Sudeste 0 -- -- 84
2020-02-09 17:00:00 8.3 10 Sudeste 18 Sudeste 0 -- -- 81
2020-02-09 16:00:00 8 9 Sudeste 19 Sudeste 0 -- -- 83
2020-02-09 15:00:00 8 10 Sudeste 19 Sudeste 0 -- -- 83
2020-02-09 14:00:00 7.3 7 Sudeste 17 Sudeste 0 -- -- 87
2020-02-09 13:00:00 5.5 4 Nordeste 13 Norte 0 -- -- 93
2020-02-09 12:00:00 4.4 2 Nordeste 9 Nordeste 0 -- -- 98
2020-02-09 11:00:00 3.3 4 Nordeste 13 Nordeste 0 -- -- 99
2020-02-09 10:00:00 2.9 9 Nordeste 14 Nordeste 0 -- -- 99
2020-02-09 09:00:00 2.6 4 Nordeste 9 Nordeste 0 -- -- 99
2020-02-09 08:00:00 2.6 3 Nordeste 9 Nordeste 0 -- -- 99
2020-02-09 07:00:00 2.4 4 Nordeste 13 Nordeste 0 -- -- 99
2020-02-09 06:00:00 2.1 4 Nordeste 12 Nordeste 0 -- -- 97
2020-02-09 05:00:00 2.2 5 Nordeste 14 Nordeste 0 -- -- 96
2020-02-09 04:00:00 2.4 8 Nordeste 12 Nordeste 0 -- -- 98
2020-02-09 03:00:00 2.7 3 Nordeste 12 Este 0 -- -- 99
2020-02-09 02:00:00 3.6 4 Nordeste 13 Nordeste 0 -- -- 98
2020-02-09 01:00:00 4.3 2 Noroeste 6 Noroeste 0 -- -- 97
2020-02-09 00:00:00 4.9 3 Norte 9 Oeste 0 -- -- 95
2020-02-08 23:00:00 6 4 Noroeste 7 Noroeste 0 -- -- 96
2020-02-08 22:00:00 6 0 Calma 6 Oeste 0 -- -- 98
2020-02-08 21:00:00 5.8 0 Calma 2 Sur 0 -- -- 97
2020-02-08 20:00:00 6.1 0 Calma 4 Sudeste 0 -- -- 96
2020-02-08 19:00:00 7.3 2 Sudoeste 12 Sur 0 -- -- 95
2020-02-08 18:00:00 7.7 3 Sudeste 7 Sur 0 -- -- 95
2020-02-08 17:00:00 8.2 4 Sur 13 Sudeste 0.6 -- -- 93
2020-02-08 16:00:00 9 2 Sur 9 Sudeste 0 -- -- 83
2020-02-08 15:00:00 8.2 4 Sudeste 12 Sudeste 0 -- -- 88
2020-02-08 14:00:00 7.2 5 Sudeste 13 Sudeste 0 -- -- 91
2020-02-08 13:00:00 7.1 3 Sudeste 8 Sudeste 0 -- -- 91
2020-02-08 12:00:00 6.6 0 Calma 4 Sur 0 -- -- 93
2020-02-08 11:00:00 5.5 0 Calma 4 Nordeste 0 -- -- 95
2020-02-08 10:00:00 4.1 2 Nordeste 9 Nordeste 0 -- -- 95
2020-02-08 09:00:00 3.5 0 Calma 9 Nordeste 0 -- -- 97
2020-02-08 08:00:00 3 5 Nordeste 9 Nordeste 0 -- -- 96
2020-02-08 07:00:00 2.4 4 Norte 10 Nordeste 0 -- -- 95
2020-02-08 06:00:00 1.7 5 Nordeste 9 Nordeste 0 -- -- 97
2020-02-08 05:00:00 1.1 0 Calma 7 Nordeste 0 -- -- 98
2020-02-08 04:00:00 1.3 0 Calma 6 Norte 0 -- -- 97
2020-02-08 03:00:00 1.7 0 Calma 4 Nordeste 0 -- -- 97
2020-02-08 02:00:00 2 0 Calma 9 Nordeste 0 -- -- 95
2020-02-08 01:00:00 2.5 3 Norte 10 Nordeste 0 -- -- 95
2020-02-08 00:00:00 3 0 Calma 7 Nordeste 0 -- -- 95
2020-02-07 23:00:00 3.8 4 Nordeste 8 Norte 0 -- -- 95
2020-02-07 22:00:00 4.3 2 Nordeste 5 Nordeste 0 -- -- 95
2020-02-07 21:00:00 5.2 0 Calma 3 Nordeste 0 -- -- 92
2020-02-07 20:00:00 6.2 0 Calma 6 Sur 0 -- -- 91
2020-02-07 19:00:00 7.6 3 Sur 10 Sur 0 -- -- 86
2020-02-07 18:00:00 10 5 Sur 17 Sudeste 0 -- -- 77
2020-02-07 17:00:00 12.2 6 Sur 19 Sudeste 0 -- -- 67
2020-02-07 16:00:00 12.7 8 Sur 18 Sur 0 -- -- 66
2020-02-07 15:00:00 12.2 9 Sudeste 21 Sudeste 0 -- -- 67
2020-02-07 14:00:00 11.4 8 Sur 22 Sudeste 0 -- -- 69
2020-02-07 13:00:00 10.2 8 Sudeste 18 Sudeste 0 -- -- 74
2020-02-07 12:00:00 8.1 4 Sudeste 11 Sur 0 -- -- 81
2020-02-07 11:00:00 4.4 3 Este 8 Nordeste 0 -- -- 91
2020-02-07 10:00:00 2.2 3 Nordeste 5 Nordeste 0 -- -- 98
2020-02-07 09:00:00 1 0 Calma 2 Norte 0 -- -- 98
2020-02-07 08:00:00 1.3 0 Calma 6 Nordeste 0 -- -- 97
2020-02-07 07:00:00 1.4 0 Calma 5 Noroeste 0 -- -- 98
2020-02-07 06:00:00 1.5 0 Calma 6 Nordeste 0 -- -- 97
2020-02-07 05:00:00 1.6 0 Calma 4 Este 0 -- -- 97
2020-02-07 04:00:00 2.1 3 Nordeste 5 Norte 0 -- -- 97
2020-02-07 03:00:00 2.3 0 Calma 6 Norte 0 -- -- 95
2020-02-07 02:00:00 2.7 0 Calma 5 Norte 0 -- -- 95
2020-02-07 01:00:00 3 0 Calma 8 Nordeste 0 -- -- 94
2020-02-07 00:00:00 3.7 3 Nordeste 9 Nordeste 0 -- -- 94
2020-02-06 23:00:00 4.1 0 Calma 5 Nordeste 0 -- -- 94
2020-02-06 22:00:00 4.3 0 Calma 2 Sur 0 -- -- 93
2020-02-06 21:00:00 5.5 0 Calma 2 Sudeste 0 -- -- 90
2020-02-06 20:00:00 6.7 0 Calma 7 Sudeste 0 -- -- 86
2020-02-06 19:00:00 8.4 6 Sur 19 Sudeste 0 -- -- 82
2020-02-06 18:00:00 9.8 10 Sur 19 Sudeste 0 -- -- 76
2020-02-06 17:00:00 11.7 11 Sudeste 24 Sudeste 0 -- -- 68
2020-02-06 16:00:00 12.7 12 Sudeste 23 Sudeste 0 -- -- 63
2020-02-06 15:00:00 12.6 11 Sur 22 Sudeste 0 -- -- 63
2020-02-06 14:00:00 11.9 8 Sudeste 20 Sur 0 -- -- 63
2020-02-06 13:00:00 10.6 4 Sudeste 13 Sudeste 0 -- -- 68
2020-02-06 12:00:00 7.5 4 Nordeste 6 Nordeste 0 -- -- 76
2020-02-06 11:00:00 4.2 3 Nordeste 8 Nordeste 0 -- -- 82
2020-02-06 10:00:00 1.4 2 Nordeste 10 Nordeste 0 -- -- 91
2020-02-06 09:00:00 0 0 Calma 5 Norte 0 -- -- 95
2020-02-06 08:00:00 -0.1 3 Norte 6 Noroeste 0 -- -- 95
2020-02-06 07:00:00 -0.2 2 Norte 5 Norte 0 -- -- 94
2020-02-06 06:00:00 0.1 0 Calma 5 Norte 0 -- -- 93
2020-02-06 05:00:00 0.2 2 Norte 5 Norte 0 -- -- 93
2020-02-06 04:00:00 -0.1 0 Calma 2 Norte 0 -- -- 92
2020-02-06 03:00:00 0.3 0 Calma 7 Nordeste 0 -- -- 89
2020-02-06 02:00:00 1 4 Norte 8 Nordeste 0 -- -- 86
2020-02-06 01:00:00 1.3 0 Calma 6 Norte 0 -- -- 84
2020-02-06 00:00:00 1.7 0 Calma 7 Norte 0 -- -- 83
2020-02-05 23:00:00 2.3 2 Nordeste 9 Nordeste 0 -- -- 82
2020-02-05 22:00:00 3.1 3 Norte 8 Nordeste 0 -- -- 78
2020-02-05 21:00:00 4.1 2 Norte 8 Nordeste 0 -- -- 74
2020-02-05 20:00:00 5.4 0 Calma 5 Nordeste 0 -- -- 71
2020-02-05 19:00:00 6.9 0 Calma 3 Sudeste 0 -- -- 61
2020-02-05 18:00:00 9 2 Sudeste 6 Sudoeste 0 -- -- 54
2020-02-05 17:00:00 13.3 4 Sudoeste 9 Sur 0 -- -- 38
2020-02-05 16:00:00 14 5 Sur 16 Sur 0 -- -- 37
2020-02-05 15:00:00 13.7 9 Sudoeste 16 Sur 0 -- -- 36
2020-02-05 14:00:00 13.8 6 Sudoeste 17 Sur 0 -- -- 36
2020-02-05 13:00:00 12.6 4 Sur 11 Sur 0 -- -- 36
2020-02-05 12:00:00 8.3 0 Calma 8 Nordeste 0 -- -- 46
2020-02-05 11:00:00 4.7 5 Nordeste 11 Nordeste 0 -- -- 64
2020-02-05 10:00:00 1 5 Nordeste 8 Nordeste 0 -- -- 79
2020-02-05 09:00:00 -0.8 0 Calma 5 Nordeste 0 -- -- 89
2020-02-05 08:00:00 -0.7 0 Calma 2 Nordeste 0 -- -- 87
2020-02-05 07:00:00 0.7 4 Noroeste 11 Norte 0 -- -- 78
2020-02-05 06:00:00 1 4 Nordeste 7 Norte 0 -- -- 80
2020-02-05 05:00:00 1.6 0 Calma 10 Nordeste 0 -- -- 74
2020-02-05 04:00:00 2.5 5 Nordeste 12 Nordeste 0 -- -- 74
2020-02-05 03:00:00 2.7 0 Calma 15 Nordeste 0 -- -- 72
2020-02-05 02:00:00 3.8 4 Nordeste 20 Nordeste 0 -- -- 69
2020-02-05 01:00:00 3.6 4 Nordeste 12 Nordeste 0 -- -- 78
2020-02-05 00:00:00 4.9 5 Norte 12 Noroeste 0 -- -- 75
2020-02-04 23:00:00 6 0 Calma 16 Norte 0 -- -- 77
2020-02-04 22:00:00 8.4 3 Nordeste 11 Nordeste 0 -- -- 64
2020-02-04 21:00:00 9 4 Norte 12 Nordeste 0 -- -- 76
2020-02-04 20:00:00 11.1 7 Norte 19 Nordeste 0 -- -- 67
2020-02-04 19:00:00 12.1 4 Norte 21 Nordeste 0 -- -- 65
2020-02-04 18:00:00 13.7 8 Nordeste 30 Nordeste 0 -- -- 61
2020-02-04 12:00:00 -- -- -- -- -- -- -- -- --
2020-02-04 11:00:00 -- -- -- -- -- -- -- -- --
2020-02-04 10:00:00 -- -- -- -- -- -- -- -- --
2020-02-04 09:00:00 -- -- -- -- -- -- -- -- --
2020-02-04 08:00:00 2.5 0 Calma 4 Nordeste 0 -- -- 98
2020-02-04 07:00:00 3.5 0 Calma 9 Nordeste 0 -- -- 97
2020-02-04 06:00:00 3.9 2 Norte 10 Nordeste 0 -- -- 93
2020-02-04 05:00:00 4 4 Nordeste 9 Nordeste 0 -- -- 93
2020-02-04 04:00:00 3.5 0 Calma 5 Nordeste 0 -- -- 96
2020-02-04 03:00:00 3.2 0 Calma 3 Este 0 -- -- 95
2020-02-04 02:00:00 3.7 0 Calma 3 Nordeste 0 -- -- 93
2020-02-04 01:00:00 4.5 0 Calma 8 Nordeste 0 -- -- 90
2020-02-04 00:00:00 5.1 0 Calma 8 Norte 0 -- -- 89
2020-02-03 23:00:00 5.4 0 Calma 5 Nordeste 0 -- -- 89
2020-02-03 22:00:00 6.8 0 Calma 11 Nordeste 0 -- -- 86
2020-02-03 21:00:00 7.7 4 Este 7 Nordeste 0 -- -- 86
2020-02-03 20:00:00 9.6 0 Calma 9 Norte 0 -- -- 79
2020-02-03 19:00:00 11.5 0 Calma 6 Sudoeste 0 -- -- 72
2020-02-03 18:00:00 14.9 4 Sur 19 Sur 0 -- -- 56
2020-02-03 17:00:00 18.1 4 Sudoeste 20 Sudeste 0 -- -- 44
2020-02-03 16:00:00 19.1 12 Sudeste 22 Sur 0 -- -- 34
2020-02-03 15:00:00 19.3 8 Sur 17 Sudeste 0 -- -- 42
2020-02-03 14:00:00 17.9 8 Sur 19 Sudeste 0 -- -- 49
2020-02-03 13:00:00 14 0 Calma 6 Nordeste 0 -- -- 62
2020-02-03 12:00:00 10.4 0 Calma 5 Nordeste 0 -- -- 73
2020-02-03 11:00:00 7.8 2 Nordeste 9 Nordeste 0 -- -- 81
2020-02-03 10:00:00 4.3 4 Nordeste 10 Norte 0 -- -- 93
2020-02-03 09:00:00 2.9 0 Calma 4 Norte 0 -- -- 99
2020-02-03 08:00:00 2.9 2 Norte 4 Norte 0 -- -- 98
2020-02-03 07:00:00 3 2 Norte 8 Noroeste 0 -- -- 98
2020-02-03 06:00:00 3.3 0 Calma 7 Norte 0 -- -- 98
2020-02-03 05:00:00 3.4 2 Norte 9 Norte 0 -- -- 98
2020-02-03 04:00:00 4 3 Norte 10 Nordeste 0 -- -- 99
2020-02-03 03:00:00 4.9 3 Norte 8 Nordeste 0 -- -- 100
2020-02-03 02:00:00 5.7 5 Nordeste 14 Nordeste 0 -- -- 100
2020-02-03 01:00:00 6.8 6 Nordeste 11 Nordeste 0 -- -- 100
2020-02-03 00:00:00 7.5 0 Calma 6 Nordeste 0 -- -- 100
2020-02-02 23:00:00 8.1 0 Calma 6 Oeste 0 -- -- 99
2020-02-02 22:00:00 8.8 3 Norte 14 Nordeste 0 -- -- 98
2020-02-02 21:00:00 9.5 8 Nordeste 14 Nordeste 0 -- -- 97
2020-02-02 20:00:00 10.1 0 Calma 5 Nordeste 0 -- -- 94
2020-02-02 19:00:00 10.3 2 Sur 8 Sur 0 -- -- 94
2020-02-02 18:00:00 10.7 0 Calma 8 Sudeste 0 -- -- 92
2020-02-02 17:00:00 10.8 0 Calma 8 Sudeste 0 -- -- 92
2020-02-02 16:00:00 10.4 3 Sudeste 14 Sur 0 -- -- 93
2020-02-02 15:00:00 10.2 7 Sudeste 13 Sudeste 0 -- -- 93
2020-02-02 14:00:00 9.3 0 Calma 7 Nordeste 0 -- -- 97
2020-02-02 13:00:00 8.7 2 Nordeste 8 Nordeste 0 -- -- 99
2020-02-02 12:00:00 7.7 4 Nordeste 10 Nordeste 0 -- -- 100
2020-02-02 11:00:00 6.6 5 Nordeste 9 Nordeste 0 -- -- 100
2020-02-02 10:00:00 5.9 7 Nordeste 15 Nordeste 0 -- -- 100
2020-02-02 09:00:00 5.5 9 Nordeste 14 Nordeste 0 -- -- 100
2020-02-02 08:00:00 5.9 6 Nordeste 12 Norte 0 -- -- 100
2020-02-02 07:00:00 5.6 0 Calma 14 Nordeste 0 -- -- 100
2020-02-02 06:00:00 6.1 6 Nordeste 13 Norte 0 -- -- 100
2020-02-02 05:00:00 7.3 3 Norte 10 Nordeste 0 -- -- 100
2020-02-02 04:00:00 7.6 3 Sudoeste 9 Sudoeste 0 -- -- 100
2020-02-02 03:00:00 8.1 0 Calma 5 Nordeste 0 -- -- 100
2020-02-02 02:00:00 8.4 3 Sur 10 Norte 0 -- -- 100
2020-02-02 01:00:00 8.5 2 Nordeste 9 Nordeste 0 -- -- 99
2020-02-02 00:00:00 8.2 3 Este 7 Nordeste 0 -- -- 99
2020-02-01 23:00:00 8 2 Este 10 Nordeste 0 -- -- 99
2020-02-01 22:00:00 7.7 2 Nordeste 9 Nordeste 0 -- -- 98
2020-02-01 21:00:00 8 0 Calma 4 Sur 0 -- -- 94
2020-02-01 20:00:00 9.6 2 Este 5 Norte 0 -- -- 92
2020-02-01 19:00:00 11.6 0 Calma 6 Nordeste 0 -- -- 83
2020-02-01 18:00:00 14.2 2 Este 16 Este 0 -- -- 73
2020-02-01 17:00:00 14.5 3 Norte 8 Sudeste 0 -- -- 68
2020-02-01 16:00:00 14.6 7 Sur 19 Sur 0 -- -- 69
2020-02-01 15:00:00 14 5 Sur 17 Sur 0 -- -- 79
2020-02-01 14:00:00 13.4 6 Sudeste 16 Sudeste 0 -- -- 90
2020-02-01 13:00:00 12.1 8 Sudeste 12 Sudeste 0 -- -- 99
2020-02-01 12:00:00 11.3 0 Calma 6 Sudeste 0 -- -- 100
2020-02-01 11:00:00 10.2 3 Sudeste 10 Sudeste 0.2 -- -- 100
2020-02-01 10:00:00 9.5 6 Sudeste 12 Sudeste 0 -- -- 100
2020-02-01 09:00:00 9.2 5 Sudeste 13 Sudeste 0 -- -- 100
2020-02-01 08:00:00 9 4 Sudeste 10 Sur 0 -- -- 100
2020-02-01 07:00:00 8.6 2 Sur 11 Nordeste 0.2 -- -- 100
2020-02-01 06:00:00 8.3 0 Calma 5 Nordeste 0.2 -- -- 100
2020-02-01 05:00:00 8.5 0 Calma 5 Nordeste 0.2 -- -- 100
2020-02-01 04:00:00 8.6 2 Sudeste 6 Sur 0.2 -- -- 100
2020-02-01 03:00:00 8.2 0 Calma 6 Sudeste 0.2 -- -- 100
2020-02-01 02:00:00 7.9 0 Calma 3 Sudoeste 0.2 -- -- 100
2020-02-01 01:00:00 7.6 0 Calma 2 Sur 0.2 -- -- 100
2020-02-01 00:00:00 7.4 0 Calma 4 Nordeste 0 -- -- 100
2020-01-31 23:00:00 7.3 0 Calma 3 Nordeste 0 -- -- 100
2020-01-31 22:00:00 7.1 0 Calma 7 Sudeste 0 -- -- 100
2020-01-31 21:00:00 7.1 0 Calma 4 Sudeste 0 -- -- 99
2020-01-31 20:00:00 7.2 0 Calma 3 Nordeste 0 -- -- 98
2020-01-31 19:00:00 8.4 0 Calma 3 Nordeste 0 -- -- 96
2020-01-31 18:00:00 9.4 0 Calma 4 Nordeste 0 -- -- 93
2020-01-31 17:00:00 9.8 0 Calma 14 Sudeste 0 -- -- 92
2020-01-31 16:00:00 9.8 8 Sudeste 15 Sudeste 0 -- -- 92
2020-01-31 15:00:00 9.3 9 Sudeste 15 Sudeste 0 -- -- 95
2020-01-31 14:00:00 8.7 8 Sudeste 15 Sudeste 0 -- -- 98
2020-01-31 13:00:00 8.6 6 Sudeste 11 Sudeste 0 -- -- 99
2020-01-31 12:00:00 8.3 5 Sudeste 10 Sur 0 -- -- 100
2020-01-31 11:00:00 7.7 5 Sudeste 18 Sudeste 0 -- -- 100
2020-01-31 10:00:00 7.3 6 Sudeste 12 Sudeste 0 -- -- 100
2020-01-31 09:00:00 7.3 4 Sudeste 6 Sudeste 0 -- -- 100
2020-01-31 08:00:00 7.3 0 Calma 5 Sudeste 0.2 -- -- 100
2020-01-31 07:00:00 7.2 3 Sudoeste 6 Sur 0 -- -- 100
2020-01-31 06:00:00 7.3 2 Sudeste 11 Sudeste 0 -- -- 100
2020-01-31 05:00:00 7.4 4 Sudeste 14 Sudeste 0 -- -- 100
2020-01-31 04:00:00 7.3 5 Sudeste 17 Sudeste 0 -- -- 100
2020-01-31 03:00:00 7.2 6 Sudeste 15 Sudeste 0 -- -- 100
2020-01-31 02:00:00 7.1 6 Sudeste 12 Sudeste 0 -- -- 100
2020-01-31 01:00:00 7.1 6 Sudeste 15 Sudeste 0.2 -- -- 100
2020-01-31 00:00:00 7.1 6 Sudeste 14 Sudeste 0.2 -- -- 99
2020-01-30 23:00:00 7.1 5 Sudeste 13 Sudeste 0 -- -- 99
2020-01-30 22:00:00 7.3 8 Sur 15 Sur 0.4 -- -- 98
2020-01-30 21:00:00 8 6 Sur 13 Sudeste 0.6 -- -- 95
2020-01-30 20:00:00 8.5 3 Sudoeste 17 Sudeste 0 -- -- 91
2020-01-30 19:00:00 8.7 9 Sudeste 17 Sudeste 0 -- -- 90
2020-01-30 18:00:00 9.1 7 Sudeste 22 Sudeste 0 -- -- 87
2020-01-30 17:00:00 9.1 15 Sudeste 23 Sudeste 0 -- -- 87
2020-01-30 16:00:00 9.3 6 Sur 20 Sudeste 0 -- -- 87
2020-01-30 15:00:00 9.1 10 Sudeste 24 Sudeste 0 -- -- 87
2020-01-30 14:00:00 9.1 12 Sudeste 21 Sudeste 0 -- -- 90
2020-01-30 13:00:00 8.7 10 Sur 21 Sudeste 0 -- -- 92
2020-01-30 12:00:00 8 9 Sudeste 16 Sudeste 0 -- -- 97
2020-01-30 11:00:00 7.8 7 Sur 12 Sudeste 0 -- -- 99
2020-01-30 10:00:00 7 3 Nordeste 6 Este 0 -- -- 97
2020-01-30 09:00:00 7.3 2 Este 6 Sudeste 0 -- -- 99
2020-01-30 08:00:00 7.4 4 Sudeste 12 Sudeste 0.2 -- -- 100
2020-01-30 07:00:00 7.5 5 Sur 10 Sudeste 0 -- -- 100
2020-01-30 06:00:00 7.8 5 Sudeste 10 Sudeste 0.2 -- -- 99
2020-01-30 05:00:00 8.1 5 Sudeste 10 Sudeste 0 -- -- 99
2020-01-30 04:00:00 8.2 5 Sur 9 Sur 0 -- -- 98
2020-01-30 03:00:00 8.4 0 Calma 13 Sudeste 0 -- -- 98
2020-01-30 02:00:00 8.6 8 Sudeste 15 Sudeste 0 -- -- 97
2020-01-30 01:00:00 8.7 4 Sudeste 16 Sur 0 -- -- 98
2020-01-30 00:00:00 8.7 8 Sudeste 15 Sudeste 0 -- -- 98
2020-01-29 23:00:00 8.7 4 Sur 15 Sudeste 0 -- -- 96
2020-01-29 22:00:00 9.1 5 Sur 18 Sudeste 0 -- -- 94
2020-01-29 21:00:00 9.5 5 Sur 13 Sudeste 0 -- -- 94
2020-01-29 20:00:00 9.6 4 Sur 13 Sudeste 0 -- -- 93
2020-01-29 19:00:00 9.9 4 Sudoeste 10 Sudoeste 0 -- -- 91
2020-01-29 18:00:00 10.2 7 Sudeste 17 Sudeste 0 -- -- 91
2020-01-29 17:00:00 11 6 Sudeste 15 Sudeste 0 -- -- 85
2020-01-29 16:00:00 11.8 4 Sur 18 Sudeste 0 -- -- 80
2020-01-29 15:00:00 11.5 8 Sudeste 17 Sudeste 0 -- -- 81
2020-01-29 14:00:00 11 3 Este 25 Sudeste 0 -- -- 85
2020-01-29 13:00:00 10.9 11 Sudeste 20 Sudeste 0 -- -- 88
2020-01-29 12:00:00 9.9 10 Sur 18 Sudeste 0 -- -- 93
2020-01-29 11:00:00 8.7 6 Sur 15 Sur 0 -- -- 98
2020-01-29 10:00:00 8.1 6 Sur 12 Sur 0 -- -- 100
2020-01-29 09:00:00 7.8 3 Sudeste 13 Sudeste 0 -- -- 99
2020-01-29 08:00:00 7.9 0 Calma 13 Este 0 -- -- 97
2020-01-29 07:00:00 8.1 0 Calma 10 Sur 0 -- -- 97
2020-01-29 06:00:00 8.6 10 Sudoeste 17 Sudoeste 0 -- -- 99
2020-01-29 05:00:00 8.3 2 Sur 12 Sur 0 -- -- 100
2020-01-29 04:00:00 8.3 2 Sur 14 Sur 0 -- -- 100
2020-01-29 03:00:00 8.2 5 Sur 13 Sur 0 -- -- 100
2020-01-29 02:00:00 8.2 8 Sudeste 14 Sudeste 0 -- -- 100
2020-01-29 01:00:00 8.2 5 Sudeste 15 Sudeste 0 -- -- 100
2020-01-29 00:00:00 8.2 0 Calma 12 Sudeste 0 -- -- 100
2020-01-28 23:00:00 8.3 6 Sudeste 11 Sudeste 0 -- -- 100
2020-01-28 22:00:00 8.6 0 Calma 5 Sudeste 0.2 -- -- 100
2020-01-28 21:00:00 8.9 4 Sudeste 18 Sudeste 0 -- -- 99
2020-01-28 20:00:00 9.3 6 Sudeste 16 Sudeste 0 -- -- 99
2020-01-28 19:00:00 9.3 0 Calma 12 Sur 0.2 -- -- 99
2020-01-28 18:00:00 9.7 0 Calma 4 Sudeste 0.4 -- -- 99
2020-01-28 17:00:00 9.9 3 Sur 15 Sudeste 0.8 -- -- 98
2020-01-28 16:00:00 10 6 Sur 16 Sudoeste 0 -- -- 96
2020-01-28 15:00:00 9.8 5 Sudoeste 12 Sudeste 0.8 -- -- 98
2020-01-28 14:00:00 9.6 7 Sudeste 16 Sudeste 1 -- -- 98
2020-01-28 13:00:00 9.4 9 Sudeste 20 Sudeste 0.4 -- -- 97
2020-01-28 12:00:00 9.1 4 Sur 21 Sudeste 0 -- -- 99
2020-01-28 11:00:00 7.9 8 Sudeste 19 Sur 0.2 -- -- 99
2020-01-28 10:00:00 7.2 0 Calma 11 Sudeste 0.4 -- -- 100
2020-01-28 09:00:00 6.7 0 Calma 15 Sudeste 0.2 -- -- 100
2020-01-28 08:00:00 6.7 0 Calma 17 Sudeste 0.4 -- -- 100
2020-01-28 07:00:00 6.7 9 Sudeste 17 Sudeste 0.4 -- -- 100
2020-01-28 06:00:00 6.6 8 Sudeste 20 Sudeste 0.8 -- -- 100
2020-01-28 05:00:00 6.4 4 Sudeste 19 Sudeste 0.6 -- -- 100
2020-01-28 04:00:00 6.1 9 Sudeste 22 Sudeste 0.4 -- -- 100
2020-01-28 03:00:00 5.9 8 Sudeste 16 Sudeste 0.4 -- -- 100
2020-01-28 02:00:00 5.5 2 Sur 7 Sudeste 0.4 -- -- 99
2020-01-28 01:00:00 5.1 0 Calma 19 Sudeste 0 -- -- 99
2020-01-28 00:00:00 5 8 Sudeste 13 Sudeste 0 -- -- 99
2020-01-27 23:00:00 4.9 5 Sudeste 15 Sudeste 0 -- -- 99
2020-01-27 22:00:00 4.8 5 Sudeste 9 Sudeste 0 -- -- 99
2020-01-27 21:00:00 4.8 3 Sur 14 Sur 0 -- -- 98
2020-01-27 20:00:00 4.3 4 Sur 11 Sur 0 -- -- 99
2020-01-27 19:00:00 3.9 8 Sur 15 Sur 0 -- -- 100
2020-01-27 18:00:00 3.8 2 Sudeste 11 Sudeste 0 -- -- 99
2020-01-27 17:00:00 3.9 3 Sudeste 12 Sudeste 0 -- -- 98
2020-01-27 16:00:00 3.8 6 Sudeste 17 Sudeste 0 -- -- 97
2020-01-27 15:00:00 4.3 10 Sudeste 24 Sudeste 0 -- -- 97
2020-01-27 14:00:00 3.5 6 Sudeste 16 Sudeste 0 -- -- 100
2020-01-27 13:00:00 2.3 0 Calma 6 Nordeste 0 -- -- 100
2020-01-27 12:00:00 1.5 3 Nordeste 11 Nordeste 0 -- -- 100
2020-01-27 11:00:00 0.8 0 Calma 5 Nordeste 0 -- -- 100
2020-01-27 10:00:00 0.4 4 Nordeste 9 Nordeste 0 -- -- 100
2020-01-27 09:00:00 0.2 6 Nordeste 10 Nordeste 0 -- -- 100
2020-01-27 08:00:00 0.4 2 Nordeste 4 Nordeste 0 -- -- 100
2020-01-27 07:00:00 0 0 Calma 8 Nordeste 0 -- -- 100
2020-01-27 06:00:00 0.3 3 Nordeste 8 Nordeste 0 -- -- 100
2020-01-27 05:00:00 0.8 2 Oeste 7 Sudoeste 0 -- -- 100
2020-01-27 04:00:00 0.9 2 Oeste 5 Oeste 0 -- -- 100
2020-01-27 03:00:00 0.6 0 Calma 3 Sur 0 -- -- 100
2020-01-27 02:00:00 -0.7 0 Calma 2 Sur 0 -- -- 99
2020-01-27 01:00:00 -0.7 0 Calma 4 Sudoeste 0 -- -- 98
2020-01-27 00:00:00 -0.3 0 Calma 4 Sudeste 0 -- -- 97
2020-01-26 23:00:00 0.1 0 Calma 3 Sur 0 -- -- 97
2020-01-26 22:00:00 1 0 Calma 3 Sudoeste 0 -- -- 96
2020-01-26 21:00:00 2 0 Calma 4 Sur 0 -- -- 94
2020-01-26 20:00:00 3.7 0 Calma 5 Noroeste 0 -- -- 85
2020-01-26 19:00:00 5.2 0 Calma 5 Nordeste 0 -- -- 85
2020-01-26 18:00:00 6.5 0 Calma 9 Sudeste 0 -- -- 80
2020-01-26 17:00:00 8 7 Sur 17 Sudoeste 0 -- -- 66
2020-01-26 16:00:00 8.4 4 Sur 14 Nordeste 0 -- -- 68
2020-01-26 15:00:00 9.1 6 Sur 20 Nordeste 0 -- -- 56
2020-01-26 14:00:00 8.1 6 Este 22 Nordeste 0 -- -- 54
2020-01-26 13:00:00 8.3 7 Sur 15 Sur 0 -- -- 63
2020-01-26 12:00:00 6.9 4 Sur 15 Sur 0 -- -- 70
2020-01-26 11:00:00 4.2 0 Calma 6 Nordeste 0 -- -- 100
2020-01-26 10:00:00 1.8 3 Este 6 Nordeste 0 -- -- 100
2020-01-26 09:00:00 1 0 Calma 4 Nordeste 0.2 -- -- 100
2020-01-26 08:00:00 1.5 0 Calma 5 Sudeste 0 -- -- 100
2020-01-26 07:00:00 2 0 Calma 4 Sudeste 0 -- -- 100
2020-01-26 06:00:00 2.2 0 Calma 4 Noroeste 0 -- -- 100
2020-01-26 05:00:00 2.5 0 Calma 4 Sur 0 -- -- 100
2020-01-26 04:00:00 2.4 0 Calma 3 Nordeste 0 -- -- 99
2020-01-26 03:00:00 2.7 0 Calma 4 Norte 0 -- -- 98
2020-01-26 02:00:00 3 2 Norte 8 Norte 0 -- -- 98
2020-01-26 01:00:00 3.6 0 Calma 6 Nordeste 0 -- -- 98
2020-01-26 00:00:00 3.8 0 Calma 8 Nordeste 0 -- -- 97
2020-01-25 23:00:00 4 4 Nordeste 8 Nordeste 0.2 -- -- 97
2020-01-25 22:00:00 4 3 Nordeste 10 Nordeste 0 -- -- 97
2020-01-25 21:00:00 4.1 4 Nordeste 7 Norte 0 -- -- 96
2020-01-25 20:00:00 4.5 2 Nordeste 5 Nordeste 0.4 -- -- 95
2020-01-25 19:00:00 5 0 Calma 6 Nordeste 0.2 -- -- 97
2020-01-25 18:00:00 5.3 0 Calma 7 Nordeste 1.2 -- -- 96
2020-01-25 17:00:00 5.7 0 Calma 13 Sudeste 2 -- -- 95
2020-01-25 16:00:00 6.3 8 Sudeste 17 Sudeste 0.2 -- -- 92
2020-01-25 15:00:00 6.9 5 Sudeste 10 Sudeste 0.2 -- -- 95
2020-01-25 14:00:00 6.7 3 Sudeste 9 Sudeste 0.4 -- -- 96
2020-01-25 13:00:00 6.5 5 Sudeste 17 Sudeste 0.2 -- -- 96
2020-01-25 12:00:00 5.9 7 Sudeste 15 Sudeste 0.8 -- -- 98
2020-01-25 11:00:00 5.6 5 Sudeste 15 Sudeste 0.2 -- -- 99
2020-01-25 10:00:00 4.9 2 Sudoeste 5 Sur 0.4 -- -- 100
2020-01-25 09:00:00 4.6 0 Calma 2 Este 0.4 -- -- 100
2020-01-25 08:00:00 4.6 0 Calma 10 Sudeste 1 -- -- 100
2020-01-25 07:00:00 4.3 0 Calma 3 Sudeste 2 -- -- 100
2020-01-25 06:00:00 4.3 0 Calma 3 Sur 1 -- -- 100
2020-01-25 05:00:00 4.4 0 Calma 3 Sur 0.2 -- -- 100
2020-01-25 04:00:00 4.1 0 Calma 2 Sur 0 -- -- 100
2020-01-25 03:00:00 4.2 0 Calma 3 Nordeste 0 -- -- 99
2020-01-25 02:00:00 4.3 0 Calma 3 Nordeste 0 -- -- 99
2020-01-25 01:00:00 4.3 0 Calma 2 Oeste 0 -- -- 99
2020-01-25 00:00:00 4.6 0 Calma 9 Nordeste 0 -- -- 99
2020-01-24 23:00:00 4.6 0 Calma 4 Norte 0 -- -- 99
2020-01-24 22:00:00 4.8 0 Calma 2 Nordeste 0 -- -- 99
2020-01-24 21:00:00 4.9 2 Oeste 4 Oeste 0 -- -- 99
2020-01-24 20:00:00 4.9 0 Calma 4 Sudeste 0 -- -- 98
2020-01-24 19:00:00 5.3 3 Sur 6 Sudeste 0 -- -- 98
2020-01-24 18:00:00 5.5 5 Sudeste 10 Sudeste 0.2 -- -- 98
2020-01-24 17:00:00 5.6 5 Sudeste 9 Sudeste 0 -- -- 97
2020-01-24 16:00:00 5.5 0 Calma 4 Sur 0.2 -- -- 98
2020-01-24 15:00:00 5.2 0 Calma 3 Sur 0.2 -- -- 97
2020-01-24 14:00:00 5.2 0 Calma 4 Sur 0.2 -- -- 97
2020-01-24 13:00:00 4.9 0 Calma 9 Sudeste 1 -- -- 96
2020-01-24 12:00:00 4.8 2 Sur 10 Sudeste 0.6 -- -- 96
2020-01-24 11:00:00 4.7 4 Sur 8 Sur 1.2 -- -- 98
2020-01-24 10:00:00 4.6 0 Calma 3 Sudeste 0.2 -- -- 99
2020-01-24 09:00:00 4.6 0 Calma 3 Sur 0 -- -- 98
2020-01-24 08:00:00 4.6 0 Calma 3 Nordeste 0 -- -- 98
2020-01-24 07:00:00 4.6 0 Calma 2 Este 0 -- -- 98
2020-01-24 06:00:00 4.6 0 Calma 3 Este 0 -- -- 97
2020-01-24 05:00:00 4.6 2 Nordeste 6 Este 0.2 -- -- 97
2020-01-24 04:00:00 4.5 0 Calma 4 Nordeste 0 -- -- 97
2020-01-24 03:00:00 4.6 0 Calma 3 Este 0 -- -- 95
2020-01-24 02:00:00 4.8 0 Calma 4 Nordeste 0 -- -- 93
2020-01-24 01:00:00 4.9 0 Calma 5 Este 0 -- -- 91
2020-01-24 00:00:00 5 2 Nordeste 5 Nordeste 0 -- -- 90
2020-01-23 23:00:00 5 0 Calma 6 Nordeste 0 -- -- 88
2020-01-23 22:00:00 5.1 3 Nordeste 5 Norte 0 -- -- 87
2020-01-23 21:00:00 5.1 5 Nordeste 8 Nordeste 0 -- -- 87
2020-01-23 20:00:00 5.2 0 Calma 3 Este 0 -- -- 86
2020-01-23 19:00:00 5.5 0 Calma 3 Sudoeste 0 -- -- 83
2020-01-23 18:00:00 6.8 0 Calma 12 Sudeste 0 -- -- 76
2020-01-23 17:00:00 7.2 6 Sur 15 Sudeste 0 -- -- 74
2020-01-23 16:00:00 7.6 6 Sudeste 16 Sudeste 0 -- -- 71
2020-01-23 15:00:00 7.8 6 Sur 15 Sur 0 -- -- 71
2020-01-23 14:00:00 7.9 5 Sur 11 Sur 0 -- -- 71
2020-01-23 13:00:00 7.2 4 Sur 13 Sur 0 -- -- 72
2020-01-23 12:00:00 6 3 Sudoeste 5 Sur 0 -- -- 78
2020-01-23 11:00:00 3.5 3 Nordeste 13 Nordeste 0 -- -- 82
2020-01-23 10:00:00 1.1 4 Nordeste 18 Nordeste 0 -- -- 91
2020-01-23 09:00:00 0.1 2 Nordeste 11 Nordeste 0 -- -- 95
2020-01-23 08:00:00 0.1 3 Nordeste 8 Nordeste 0 -- -- 96
2020-01-23 07:00:00 -0.2 0 Calma 9 Nordeste 0 -- -- 95
2020-01-23 06:00:00 0.2 4 Nordeste 7 Noroeste 0 -- -- 95
2020-01-23 05:00:00 1.1 3 Norte 9 Norte 0 -- -- 93
2020-01-23 04:00:00 2 0 Calma 4 Norte 0 -- -- 90
2020-01-23 03:00:00 3.2 0 Calma 6 Noroeste 0 -- -- 87
2020-01-23 02:00:00 4 3 Norte 12 Nordeste 0 -- -- 83
2020-01-23 01:00:00 4 6 Norte 17 Nordeste 0 -- -- 81
2020-01-23 00:00:00 3.3 2 Nordeste 6 Este 0 -- -- 86
2020-01-22 23:00:00 3.4 0 Calma 4 Nordeste 0 -- -- 84
2020-01-22 22:00:00 3.5 0 Calma 12 Norte 0 -- -- 82
2020-01-22 21:00:00 4 0 Calma 7 Este 0 -- -- 81
2020-01-22 20:00:00 3.4 0 Calma 10 Nordeste 0 -- -- 84
2020-01-22 19:00:00 4.6 4 Nordeste 28 Noroeste 0 -- -- 77
2020-01-22 18:00:00 5 8 Noroeste 23 Noroeste 0 -- -- 79
2020-01-22 17:00:00 6.6 3 Nordeste 16 Noroeste 0 -- -- 71
2020-01-22 16:00:00 7.6 3 Nordeste 10 Sudoeste 0 -- -- 72
2020-01-22 15:00:00 7.5 3 Noroeste 13 Oeste 0 -- -- 68
2020-01-22 14:00:00 6.8 3 Nordeste 12 Nordeste 0 -- -- 70
2020-01-22 13:00:00 6.1 2 Norte 6 Nordeste 0 -- -- 74
2020-01-22 12:00:00 5.1 2 Noroeste 12 Nordeste 0 -- -- 78
2020-01-22 11:00:00 4.3 4 Norte 13 Norte 0 -- -- 82
2020-01-22 10:00:00 3.8 3 Sudoeste 14 Norte 0 -- -- 85
2020-01-22 09:00:00 3.6 3 Sudoeste 18 Norte 0 -- -- 86
2020-01-22 08:00:00 3.5 4 Norte 13 Norte 0 -- -- 87
2020-01-22 07:00:00 3.3 2 Sur 15 Oeste 0 -- -- 88
2020-01-22 06:00:00 3.5 5 Oeste 15 Noroeste 0 -- -- 87
2020-01-22 05:00:00 3.4 5 Noroeste 24 Norte 0 -- -- 85
2020-01-22 04:00:00 3.4 4 Oeste 23 Este 0 -- -- 83
2020-01-22 03:00:00 4 6 Sudeste 22 Norte 0 -- -- 80
2020-01-22 02:00:00 3.8 3 Sur 18 Nordeste 0 -- -- 87
2020-01-22 01:00:00 4 5 Norte 33 Noroeste 0 -- -- 83
2020-01-22 00:00:00 4.3 4 Noroeste 24 Nordeste 0 -- -- 83
2020-01-21 23:00:00 3.7 6 Norte 29 Nordeste 0 -- -- 86
2020-01-21 22:00:00 3.3 9 Norte 27 Norte 0.6 -- -- 88
2020-01-21 21:00:00 4 11 Norte 36 Norte 0.4 -- -- 86
2020-01-21 20:00:00 5.1 9 Norte 31 Nordeste 0 -- -- 80
2020-01-21 19:00:00 5 13 Norte 39 Norte 0.2 -- -- 81
2020-01-21 18:00:00 5.5 13 Norte 43 Nordeste 0 -- -- 76
2020-01-21 17:00:00 5.5 12 Norte 33 Noroeste 0.2 -- -- 76
2020-01-21 16:00:00 4.2 8 Norte 42 Nordeste 0.4 -- -- 83
2020-01-21 15:00:00 5.8 12 Norte 31 Noroeste 0 -- -- 69
2020-01-21 14:00:00 5.1 13 Norte 41 Norte 0 -- -- 71
2020-01-21 13:00:00 5.5 18 Norte 45 Nordeste 0 -- -- 69
2020-01-21 12:00:00 5.6 14 Norte 46 Norte 0 -- -- 68
2020-01-21 11:00:00 5.5 18 Norte 50 Este 0 -- -- 66
2020-01-21 10:00:00 5.2 19 Norte 44 Nordeste 0 -- -- 66
2020-01-21 09:00:00 4.8 18 Norte 40 Norte 0 -- -- 66
2020-01-21 08:00:00 4.5 13 Norte 40 Noroeste 0 -- -- 68
2020-01-21 07:00:00 4.5 15 Norte 54 Norte 0 -- -- 67
2020-01-21 06:00:00 4 12 Norte 50 Nordeste 0 -- -- 68
2020-01-21 05:00:00 4 21 Norte 50 Nordeste 0 -- -- 66
2020-01-21 04:00:00 4.1 15 Norte 39 Nordeste 0 -- -- 63
2020-01-21 03:00:00 4.2 8 Norte 45 Norte 0 -- -- 63
2020-01-21 02:00:00 4.5 21 Norte 55 Nordeste 0 -- -- 61
2020-01-21 01:00:00 3.9 18 Norte 47 Nordeste 0 -- -- 62
2020-01-21 00:00:00 3.9 14 Norte 39 Norte 0 -- -- 61
2020-01-20 23:00:00 3.9 10 Norte 43 Noroeste 0 -- -- 62
2020-01-20 22:00:00 4.2 20 Norte 45 Norte 0 -- -- 58
2020-01-20 21:00:00 4.1 15 Norte 44 Nordeste 0 -- -- 56
2020-01-20 20:00:00 4.4 14 Norte 41 Norte 0 -- -- 56
2020-01-20 19:00:00 4.7 14 Norte 37 Norte 0 -- -- 55
2020-01-20 18:00:00 4.9 15 Norte 44 Norte 0 -- -- 52
2020-01-20 17:00:00 4.7 15 Norte 40 Nordeste 0 -- -- 51
2020-01-20 16:00:00 5.2 12 Norte 38 Norte 0 -- -- 50
2020-01-20 15:00:00 5.1 10 Norte 43 Norte 0 -- -- 47
2020-01-20 14:00:00 5.1 22 Norte 46 Noroeste 0 -- -- 45
2020-01-20 13:00:00 4.9 16 Norte 32 Nordeste 0 -- -- 40
2020-01-20 12:00:00 4.5 12 Nordeste 33 Nordeste 0 -- -- 31
2020-01-20 11:00:00 2.4 15 Nordeste 39 Nordeste 0 -- -- 30
2020-01-20 10:00:00 1.9 19 Nordeste 46 Nordeste 0 -- -- 33
2020-01-20 09:00:00 1.3 12 Norte 30 Nordeste 0 -- -- 34
2020-01-20 08:00:00 1.3 13 Nordeste 42 Nordeste 0 -- -- 31
2020-01-20 07:00:00 1.7 18 Nordeste 39 Nordeste 0 -- -- 30
2020-01-20 06:00:00 1.7 16 Nordeste 34 Nordeste 0 -- -- 30
2020-01-20 05:00:00 2 19 Nordeste 42 Nordeste 0 -- -- 30
2020-01-20 04:00:00 1.4 19 Norte 52 Nordeste 0 -- -- 35
2020-01-20 03:00:00 2.2 22 Nordeste 49 Nordeste 0 -- -- 30
2020-01-20 02:00:00 1.8 23 Nordeste 40 Nordeste 0 -- -- 33
2020-01-20 01:00:00 2 19 Nordeste 40 Nordeste 0 -- -- 34
2020-01-20 00:00:00 1.7 14 Nordeste 36 Nordeste 0 -- -- 37
2020-01-19 23:00:00 2 13 Nordeste 45 Nordeste 0 -- -- 36
2020-01-19 22:00:00 2.2 16 Nordeste 38 Norte 0 -- -- 36
2020-01-19 21:00:00 2.3 12 Norte 50 Norte 0 -- -- 37
2020-01-19 20:00:00 3.9 16 Norte 51 Nordeste 0 -- -- 27
2020-01-19 19:00:00 4.5 19 Nordeste 77 Nordeste 0.2 -- -- 28
2020-01-19 18:00:00 5.6 21 Norte 77 Nordeste 0 -- -- 25
2020-01-19 17:00:00 6.4 25 Nordeste 91 Nordeste 0.4 -- -- 25
2020-01-19 16:00:00 7.1 27 Nordeste 61 Norte 0 -- -- 25
2020-01-19 15:00:00 7.4 28 Nordeste 62 Nordeste 0 -- -- 31
2020-01-19 14:00:00 6.6 21 Nordeste 60 Este 0 -- -- 36
2020-01-19 13:00:00 6.1 16 Nordeste 40 Norte 0 -- -- 42
2020-01-19 12:00:00 5.6 11 Nordeste 52 Nordeste 0 -- -- 51
2020-01-19 11:00:00 5 9 Nordeste 37 Nordeste 0 -- -- 65
2020-01-19 10:00:00 5.2 17 Nordeste 42 Nordeste 0 -- -- 71
2020-01-19 09:00:00 4.7 13 Nordeste 36 Nordeste 0 -- -- 77
2020-01-19 08:00:00 4.5 12 Nordeste 28 Nordeste 0 -- -- 80
2020-01-19 07:00:00 4.3 13 Nordeste 28 Nordeste 0 -- -- 83
2020-01-19 06:00:00 4.7 6 Nordeste 22 Nordeste 0 -- -- 81
2020-01-19 05:00:00 4.4 8 Nordeste 22 Nordeste 0 -- -- 79
2020-01-19 04:00:00 4.4 8 Nordeste 18 Este 0 -- -- 79
2020-01-19 03:00:00 4.9 8 Nordeste 21 Nordeste 0 -- -- 75
2020-01-19 02:00:00 2.4 0 Calma 5 Norte 0 -- -- 95
2020-01-19 01:00:00 4.3 2 Sudeste 18 Este 0.2 -- -- 84
2020-01-19 00:00:00 2.9 3 Sur 10 Sudeste 0 -- -- 97
2020-01-18 23:00:00 5 2 Noroeste 16 Norte 0 -- -- 87
2020-01-18 22:00:00 5.6 4 Sur 18 Nordeste 1.4 -- -- 90
2020-01-18 21:00:00 5.9 6 Nordeste 21 Sudeste 1.4 -- -- 96
2020-01-18 20:00:00 5.7 11 Sudeste 21 Sudeste 0.2 -- -- 98
2020-01-18 19:00:00 5.5 3 Sudeste 22 Sudeste 0 -- -- 99
2020-01-18 18:00:00 5.2 6 Sudeste 13 Sudeste 0 -- -- 100
2020-01-18 17:00:00 5 2 Sudeste 8 Sudeste 0 -- -- 99
2020-01-18 16:00:00 4.8 0 Calma 12 Sudeste 0.4 -- -- 98
2020-01-18 15:00:00 4.8 4 Sudeste 13 Sudeste 0.4 -- -- 98
2020-01-18 14:00:00 4.6 6 Sudeste 15 Sudeste 0.8 -- -- 98
2020-01-18 13:00:00 4.1 6 Sudeste 10 Sudeste 1 -- -- 99
2020-01-18 12:00:00 3 3 Nordeste 7 Nordeste 0.6 -- -- 98
2020-01-18 11:00:00 2.5 0 Calma 3 Nordeste 0.6 -- -- 97
2020-01-18 10:00:00 2.1 0 Calma 2 Nordeste 0 -- -- 94
2020-01-18 09:00:00 2 0 Calma 3 Sur 0 -- -- 92
2020-01-18 08:00:00 1.7 3 Sur 7 Sur 0 -- -- 90
2020-01-18 07:00:00 1.4 0 Calma 6 Nordeste 0 -- -- 88
2020-01-18 06:00:00 1.2 3 Nordeste 5 Norte 0 -- -- 88
2020-01-18 05:00:00 0.9 2 Sudeste 9 Nordeste 0 -- -- 89
2020-01-18 04:00:00 0.3 0 Calma 6 Norte 0 -- -- 92
2020-01-18 03:00:00 0.2 2 Nordeste 6 Nordeste 0 -- -- 93
2020-01-18 02:00:00 0.8 2 Sudoeste 6 Norte 0 -- -- 89
2020-01-18 01:00:00 1.8 0 Calma 10 Nordeste 0 -- -- 86
2020-01-18 00:00:00 1.9 0 Calma 11 Nordeste 0 -- -- 86